createdAt,value
2019-05-10T04:53:33.226Z,144.00
2019-05-10T05:37:16.497Z,224.00
2019-05-10T05:49:16.359Z,304.00
2019-05-10T05:51:16.343Z,332.00
2019-05-10T05:54:20.677Z,344.00
2019-05-10T05:55:39.839Z,352.00
2019-05-10T05:56:44.617Z,356.00
2019-05-10T06:00:06.467Z,340.00
2019-05-10T06:02:07.411Z,308.00
2019-05-10T06:03:03.364Z,292.00
2019-05-10T06:05:03.335Z,272.00
2019-05-10T06:06:15.514Z,272.00
2019-05-10T06:07:25.353Z,272.00
2019-05-10T06:08:25.369Z,244.00
2019-05-10T06:09:25.305Z,260.00
2019-05-10T06:10:25.307Z,268.00
2019-05-10T06:11:29.646Z,264.00
2019-05-10T06:12:50.584Z,272.00
2019-05-10T06:13:47.321Z,268.00
2019-05-10T06:14:49.778Z,260.00
2019-05-10T06:15:47.294Z,268.00
2019-05-10T06:16:51.535Z,276.00
2019-05-10T06:17:56.020Z,260.00
2019-05-10T06:21:09.245Z,388.00
2019-05-10T06:22:09.224Z,424.00
2019-05-10T06:23:09.208Z,500.00
2019-05-10T06:24:13.494Z,640.00
2019-05-10T06:25:39.455Z,612.00
2019-05-10T06:26:53.388Z,620.00
2019-05-10T06:27:53.376Z,624.00
2019-05-10T06:28:59.480Z,556.00
2019-05-10T06:30:20.282Z,504.00
2019-05-10T06:31:20.361Z,552.00
2019-05-10T06:32:20.241Z,532.00
2019-05-10T06:33:20.229Z,544.00
2019-05-10T06:34:20.226Z,512.00
2019-05-10T06:35:20.898Z,480.00
2019-05-10T06:36:20.209Z,436.00
2019-05-10T06:37:20.199Z,408.00
2019-05-10T06:38:20.179Z,376.00
2019-05-10T06:39:20.372Z,368.00
2019-05-10T06:40:33.250Z,388.00
2019-05-10T06:41:42.059Z,460.00
2019-05-10T06:42:42.059Z,488.00
2019-05-10T06:43:45.696Z,600.00
2019-05-10T06:45:05.089Z,620.00
2019-05-10T06:46:29.416Z,568.00
2019-05-10T06:47:25.659Z,624.00
2019-05-10T06:48:31.297Z,572.00
2019-05-10T06:49:52.085Z,576.00
2019-05-10T06:50:47.658Z,564.00
2019-05-10T06:51:49.107Z,464.00
2019-05-10T06:52:47.627Z,416.00
2019-05-10T06:53:52.639Z,440.00
2019-05-10T06:55:09.735Z,468.00
2019-05-10T06:56:09.570Z,456.00
2019-05-10T06:57:11.284Z,456.00
2019-05-10T06:58:36.512Z,480.00
2019-05-10T06:59:32.776Z,516.00
2019-05-10T07:00:38.034Z,508.00
2019-05-10T07:02:40.524Z,540.00
2019-05-10T07:03:40.512Z,588.00
2019-05-10T07:04:41.242Z,624.00
2019-05-10T07:05:40.525Z,648.00
2019-05-10T07:06:40.459Z,708.00
2019-05-10T07:07:45.386Z,700.00
2019-05-10T07:08:44.169Z,704.00
2019-05-10T07:10:12.333Z,636.00
2019-05-10T07:13:24.514Z,468.00
2019-05-10T07:14:27.147Z,456.00
2019-05-10T07:15:24.491Z,508.00
2019-05-10T07:16:26.048Z,580.00
2019-05-10T07:17:24.460Z,644.00
2019-05-10T07:18:24.485Z,648.00
2019-05-10T07:19:24.431Z,736.00
2019-05-10T07:20:29.474Z,904.00
2019-05-10T07:21:51.077Z,1044.00
2019-05-10T07:22:46.555Z,1080.00
2019-05-10T07:23:47.707Z,1104.00
2019-05-10T07:24:46.379Z,1256.00
2019-05-10T07:25:46.808Z,1224.00
2019-05-10T07:26:46.331Z,1156.00
2019-05-10T07:27:50.052Z,960.00
2019-05-10T07:28:46.312Z,780.00
2019-05-10T07:29:46.384Z,824.00
2019-05-10T07:30:46.280Z,836.00
2019-05-10T07:31:46.279Z,900.00
2019-05-10T07:32:46.281Z,952.00
2019-05-10T07:33:46.246Z,896.00
2019-05-10T07:34:48.774Z,944.00
2019-05-10T07:36:14.741Z,952.00
2019-05-10T07:37:30.448Z,908.00
2019-05-10T07:38:32.768Z,1032.00
2019-05-10T07:39:30.409Z,1064.00
2019-05-10T07:40:30.398Z,860.00
2019-05-10T07:41:30.372Z,756.00
2019-05-10T07:42:30.390Z,680.00
2019-05-10T07:43:30.387Z,648.00
2019-05-10T07:44:30.344Z,684.00
2019-05-10T07:45:30.353Z,720.00
2019-05-10T07:46:30.319Z,764.00
2019-05-10T07:47:32.519Z,904.00
2019-05-10T07:48:30.286Z,1032.00
2019-05-10T07:49:32.499Z,1208.00
2019-05-10T07:50:30.279Z,1144.00
2019-05-10T07:51:30.458Z,1124.00
2019-05-10T07:52:30.246Z,1032.00
2019-05-10T07:53:30.232Z,1084.00
2019-05-10T07:54:30.345Z,1116.00
2019-05-10T07:55:30.259Z,1128.00
2019-05-10T07:56:30.217Z,1184.00
2019-05-10T07:57:30.290Z,1320.00
2019-05-10T07:58:30.209Z,1652.00
2019-05-10T07:59:33.820Z,2056.00
2019-05-10T08:00:55.932Z,2292.00
2019-05-10T08:01:52.573Z,2360.00
2019-05-10T08:03:00.806Z,2204.00
2019-05-10T08:04:19.846Z,1956.00
2019-05-10T08:05:39.111Z,1664.00
2019-05-10T08:06:44.046Z,1516.00
2019-05-10T08:07:59.594Z,1172.00
2019-05-10T08:09:01.900Z,1112.00
2019-05-10T08:10:21.717Z,1128.00
2019-05-10T08:11:21.489Z,1296.00
2019-05-10T08:12:24.432Z,1256.00
2019-05-10T08:13:25.091Z,1144.00
2019-05-10T08:14:24.778Z,928.00
2019-05-10T08:15:24.765Z,824.00
2019-05-10T08:17:05.843Z,876.00
2019-05-10T08:18:25.373Z,720.00
2019-05-10T08:19:21.426Z,792.00
2019-05-10T08:20:41.070Z,804.00
2019-05-10T08:21:43.373Z,748.00
2019-05-10T08:22:46.079Z,756.00
2019-05-10T08:23:43.979Z,924.00
2019-05-10T08:24:46.464Z,1036.00
2019-05-10T08:26:05.709Z,1252.00
2019-05-10T08:27:11.663Z,1500.00
2019-05-10T08:28:34.031Z,1564.00
2019-05-10T08:30:15.730Z,1524.00
2019-05-10T08:31:12.532Z,1528.00
2019-05-10T08:32:12.956Z,1452.00
2019-05-10T08:33:14.390Z,1332.00
2019-05-10T08:34:12.309Z,1344.00
2019-05-10T08:35:17.126Z,1476.00
2019-05-10T08:36:45.779Z,1840.00
2019-05-10T08:37:59.300Z,1940.00
2019-05-10T08:39:07.723Z,2008.00
2019-05-10T08:40:27.398Z,2044.00
2019-05-10T08:41:45.805Z,2284.00
2019-05-10T08:42:48.136Z,2476.00
2019-05-10T08:44:05.420Z,3104.00
2019-05-10T08:45:08.883Z,3296.00
2019-05-10T08:46:05.367Z,3248.00
2019-05-10T08:47:07.623Z,3208.00
2019-05-10T08:48:27.775Z,3148.00
2019-05-10T08:49:38.676Z,3216.00
2019-05-10T08:50:56.829Z,3128.00
2019-05-10T08:52:12.203Z,3020.00
2019-05-10T08:53:16.283Z,3008.00
2019-05-10T08:54:12.179Z,3052.00
2019-05-10T08:55:12.657Z,3136.00
2019-05-10T08:56:13.903Z,3176.00
2019-05-10T08:57:34.873Z,3116.00
2019-05-10T08:58:55.661Z,3036.00
2019-05-10T09:00:06.528Z,2896.00
2019-05-10T09:01:26.617Z,2528.00
2019-05-10T09:02:39.596Z,2512.00
2019-05-10T09:03:41.778Z,2676.00
2019-05-10T09:04:43.761Z,2948.00
2019-05-10T09:06:03.527Z,2972.00
2019-05-10T09:07:23.635Z,2208.00
2019-05-10T09:08:27.249Z,2568.00
2019-05-10T09:09:49.911Z,3012.00
2019-05-10T09:10:45.619Z,3316.00
2019-05-10T09:11:45.628Z,3264.00
2019-05-10T09:12:51.115Z,2992.00
2019-05-10T09:14:12.312Z,2884.00
2019-05-10T09:31:39.390Z,2196.00
2019-05-10T09:33:08.336Z,2172.00
2019-05-10T09:34:25.957Z,1980.00
2019-05-10T09:35:22.383Z,1808.00
2019-05-10T09:36:30.505Z,1784.00
2019-05-10T09:37:47.656Z,1616.00
2019-05-10T09:39:09.271Z,1512.00
2019-05-10T09:40:28.473Z,1680.00
2019-05-10T09:41:33.768Z,1880.00
2019-05-10T09:42:53.560Z,1992.00
2019-05-10T09:43:53.873Z,1992.00
2019-05-10T09:44:53.518Z,2040.00
2019-05-10T09:45:53.524Z,2044.00
2019-05-10T09:46:53.514Z,2004.00
2019-05-10T09:47:53.536Z,2016.00
2019-05-10T09:48:54.490Z,1796.00
2019-05-10T09:50:15.357Z,1780.00
2019-05-10T09:51:19.024Z,1848.00
2019-05-10T09:52:37.296Z,1780.00
2019-05-10T09:53:38.364Z,1932.00
2019-05-10T09:54:38.145Z,2324.00
2019-05-10T09:55:37.273Z,2504.00
2019-05-10T09:56:39.533Z,2400.00
2019-05-10T09:57:59.365Z,2416.00
2019-05-10T09:58:59.361Z,2580.00
2019-05-10T09:59:59.347Z,2828.00
2019-05-10T10:01:13.377Z,2964.00
2019-05-10T10:02:21.327Z,3216.00
2019-05-10T10:03:21.340Z,3408.00
2019-05-10T10:04:21.318Z,3188.00
2019-05-10T10:05:21.332Z,2812.00
2019-05-10T10:06:21.294Z,2612.00
2019-05-10T10:07:24.300Z,2620.00
2019-05-10T10:08:48.663Z,2860.00
2019-05-10T10:10:07.384Z,2440.00
2019-05-10T10:11:14.108Z,2208.00
2019-05-10T10:12:28.939Z,2064.00
2019-05-10T10:13:39.546Z,2132.00
2019-05-10T10:14:49.560Z,2520.00
2019-05-10T10:15:52.293Z,2804.00
2019-05-10T10:16:58.198Z,3188.00
2019-05-10T10:18:12.571Z,3524.00
2019-05-10T10:19:33.610Z,3420.00
2019-05-10T10:20:35.991Z,3356.00
2019-05-10T10:21:57.625Z,3348.00
2019-05-10T10:22:55.967Z,3320.00
2019-05-10T10:24:00.022Z,3260.00
2019-05-10T10:25:00.501Z,3220.00
2019-05-10T10:25:57.942Z,2956.00
2019-05-10T10:26:58.009Z,2680.00
2019-05-10T10:27:57.429Z,2612.00
2019-05-10T10:28:57.835Z,2680.00
2019-05-10T10:29:57.303Z,2772.00
2019-05-10T10:31:03.378Z,2828.00
2019-05-10T10:32:17.596Z,2952.00
2019-05-10T10:33:24.466Z,3080.00
2019-05-10T10:34:43.052Z,3156.00
2019-05-10T10:35:39.533Z,3108.00
2019-05-10T10:36:43.726Z,3160.00
2019-05-10T10:37:39.509Z,3124.00
2019-05-10T10:38:45.310Z,3004.00
2019-05-10T10:40:05.463Z,2936.00
2019-05-10T10:41:31.575Z,2696.00
2019-05-10T10:42:47.327Z,2736.00
2019-05-10T10:43:45.440Z,2700.00
2019-05-10T10:44:45.468Z,2612.00
2019-05-10T10:45:45.430Z,2688.00
2019-05-10T10:46:47.754Z,2720.00
2019-05-10T10:47:47.151Z,2704.00
2019-05-10T10:48:49.291Z,2580.00
2019-05-10T10:49:45.412Z,2508.00
2019-05-10T10:50:53.372Z,2620.00
2019-05-10T10:52:11.186Z,2724.00
2019-05-10T10:53:29.382Z,2664.00
2019-05-10T10:54:36.515Z,2528.00
2019-05-10T10:55:54.423Z,2604.00
2019-05-10T10:56:51.384Z,2776.00
2019-05-10T10:57:51.371Z,2792.00
2019-05-10T10:58:51.360Z,3164.00
2019-05-10T10:59:51.357Z,3268.00
2019-05-10T11:00:51.370Z,2720.00
2019-05-10T11:02:23.350Z,2388.00
2019-05-10T11:03:13.442Z,2436.00
2019-05-10T11:04:16.240Z,2576.00
2019-05-10T11:05:13.371Z,2872.00
2019-05-10T11:06:15.331Z,2780.00
2019-05-10T11:07:13.364Z,2516.00
2019-05-10T11:08:13.363Z,2572.00
2019-05-10T11:09:13.335Z,2396.00
2019-05-10T11:10:18.549Z,2196.00
2019-05-10T11:11:13.297Z,2196.00
2019-05-10T11:12:14.601Z,2312.00
2019-05-10T11:13:20.357Z,2456.00
2019-05-10T11:14:45.155Z,2620.00
2019-05-10T11:15:42.049Z,2888.00
2019-05-10T11:16:41.277Z,3276.00
2019-05-10T11:17:40.853Z,3192.00
2019-05-10T11:18:41.848Z,3376.00
2019-05-10T11:19:41.713Z,3144.00
2019-05-10T11:20:42.027Z,3120.00
2019-05-10T11:22:09.433Z,3196.00
2019-05-10T11:23:33.079Z,3296.00
2019-05-10T11:24:53.332Z,3400.00
2019-05-10T11:26:10.851Z,3352.00
2019-05-10T11:27:15.225Z,3524.00
2019-05-10T11:28:38.871Z,3540.00
2019-05-10T11:29:55.123Z,3472.00
2019-05-10T11:30:52.595Z,3304.00
2019-05-10T11:32:11.344Z,3244.00
2019-05-10T11:33:29.194Z,3456.00
2019-05-10T11:34:38.839Z,3372.00
2019-05-10T11:35:37.643Z,3380.00
2019-05-10T11:36:40.420Z,3308.00
2019-05-10T11:38:01.182Z,3184.00
2019-05-10T11:39:01.620Z,3020.00
2019-05-10T11:40:01.738Z,2956.00
2019-05-10T11:41:01.848Z,2792.00
2019-05-10T11:42:06.733Z,2648.00
2019-05-10T11:43:27.074Z,2404.00
2019-05-10T11:44:25.825Z,2328.00
2019-05-10T11:45:26.313Z,2496.00
2019-05-10T11:46:57.342Z,2208.00
2019-05-10T11:48:01.506Z,2032.00
2019-05-10T11:48:57.313Z,1856.00
2019-05-10T11:49:57.294Z,1680.00
2019-05-10T11:50:57.280Z,1656.00
2019-05-10T11:51:58.886Z,1684.00
2019-05-10T11:52:57.265Z,1612.00
2019-05-10T11:53:59.641Z,1688.00
2019-05-10T11:55:01.270Z,1828.00
2019-05-10T11:55:57.218Z,1840.00
2019-05-10T11:56:58.488Z,2384.00
2019-05-10T11:58:03.230Z,2432.00
2019-05-10T11:59:02.577Z,1924.00
2019-05-10T11:59:57.165Z,1904.00
2019-05-10T12:01:00.373Z,1780.00
2019-05-10T12:02:37.128Z,1580.00
2019-05-10T12:03:43.414Z,1480.00
2019-05-10T12:04:43.619Z,1412.00
2019-05-10T12:05:43.439Z,1432.00
2019-05-10T12:06:49.983Z,1352.00
2019-05-10T12:08:05.419Z,1484.00
2019-05-10T12:09:05.380Z,1680.00
2019-05-10T12:10:14.436Z,1964.00
2019-05-10T12:11:33.298Z,2356.00
2019-05-10T12:13:05.722Z,2316.00
2019-05-10T12:14:13.886Z,2608.00
2019-05-10T12:15:13.758Z,2368.00
2019-05-10T12:16:16.090Z,2348.00
2019-05-10T12:17:14.207Z,2000.00
2019-05-10T12:18:14.846Z,1908.00
2019-05-10T12:19:19.785Z,1864.00
2019-05-10T12:20:54.067Z,1524.00
2019-05-10T12:21:35.466Z,1480.00
2019-05-10T12:22:38.157Z,1480.00
2019-05-10T12:23:56.635Z,1336.00
2019-05-10T12:25:18.691Z,1296.00
2019-05-10T12:27:48.893Z,1372.00
2019-05-10T12:28:44.395Z,1524.00
2019-05-10T12:29:46.596Z,1456.00
2019-05-10T12:31:07.463Z,1368.00
2019-05-10T12:32:33.560Z,1660.00
2019-05-10T12:33:50.758Z,2040.00
2019-05-10T12:34:55.015Z,2444.00
2019-05-10T12:36:22.237Z,2776.00
2019-05-10T12:37:34.594Z,2852.00
2019-05-10T12:38:35.916Z,3104.00
2019-05-10T12:39:34.560Z,2932.00
2019-05-10T12:40:34.537Z,2816.00
2019-05-10T12:41:39.804Z,2792.00
2019-05-10T12:42:56.644Z,3084.00
2019-05-10T12:44:02.968Z,2752.00
2019-05-10T12:45:23.416Z,2776.00
2019-05-10T12:46:21.089Z,3060.00
2019-05-10T12:47:21.486Z,3120.00
2019-05-10T12:48:23.478Z,3112.00
2019-05-10T12:49:21.513Z,2928.00
2019-05-10T12:50:21.039Z,2608.00
2019-05-10T12:51:21.239Z,2144.00
2019-05-10T12:52:23.486Z,1916.00
2019-05-10T12:53:47.711Z,1620.00
2019-05-10T12:55:04.536Z,1312.00
2019-05-10T12:56:04.715Z,1168.00
2019-05-10T12:57:04.528Z,1056.00
2019-05-10T12:58:04.513Z,1020.00
2019-05-10T12:59:04.533Z,996.00
2019-05-10T13:00:06.738Z,992.00
2019-05-10T13:01:31.852Z,1044.00
2019-05-10T13:02:53.400Z,1096.00
2019-05-10T13:03:48.520Z,1268.00
2019-05-10T13:04:52.669Z,1448.00
2019-05-10T13:05:53.185Z,1416.00
2019-05-10T13:06:48.460Z,1360.00
2019-05-10T13:07:48.455Z,1324.00
2019-05-10T13:08:48.438Z,1272.00
2019-05-10T13:09:50.125Z,1264.00
2019-05-10T13:10:49.812Z,1252.00
2019-05-10T13:11:48.414Z,1204.00
2019-05-10T13:12:48.398Z,1160.00
2019-05-10T13:13:48.432Z,1140.00
2019-05-10T13:14:52.577Z,1124.00
2019-05-10T13:15:48.370Z,1104.00
2019-05-10T13:16:48.356Z,1096.00
2019-05-10T13:17:53.135Z,1108.00
2019-05-10T13:18:51.738Z,1124.00
2019-05-10T13:19:52.778Z,1148.00
2019-05-10T13:21:19.575Z,992.00
2019-05-10T13:22:37.659Z,1288.00
2019-05-10T13:23:55.384Z,1384.00
2019-05-10T13:24:54.348Z,1676.00
2019-05-10T13:25:54.323Z,1776.00
2019-05-10T13:26:54.341Z,1832.00
2019-05-10T13:27:54.325Z,1936.00
2019-05-10T13:28:54.299Z,2100.00
2019-05-10T13:29:54.282Z,2212.00
2019-05-10T13:30:54.287Z,2248.00
2019-05-10T13:31:56.670Z,2268.00
2019-05-10T13:32:58.517Z,2376.00
2019-05-10T13:34:16.356Z,2540.00
2019-05-10T13:35:16.359Z,2520.00
2019-05-10T13:36:16.359Z,2384.00
2019-05-10T13:37:23.160Z,1824.00
2019-05-10T13:38:44.029Z,1288.00
2019-05-10T13:40:05.477Z,1088.00
2019-05-10T13:41:24.065Z,1008.00
2019-05-10T13:42:23.095Z,1196.00
2019-05-10T13:43:26.540Z,1472.00
2019-05-10T13:44:23.049Z,1572.00
2019-05-10T13:45:23.017Z,1688.00
2019-05-10T13:46:23.005Z,1860.00
2019-05-10T13:47:22.989Z,2060.00
2019-05-10T13:48:26.075Z,2184.00
2019-05-10T13:49:22.975Z,2444.00
2019-05-10T13:50:22.991Z,2412.00
2019-05-10T13:51:22.965Z,2360.00
2019-05-10T13:52:29.810Z,2348.00
2019-05-10T13:53:44.607Z,2364.00
2019-05-10T13:54:44.588Z,2412.00
2019-05-10T13:55:44.585Z,2416.00
2019-05-10T13:56:52.028Z,2336.00
2019-05-10T13:58:06.623Z,2228.00
2019-05-10T13:59:15.599Z,2212.00
2019-05-10T14:00:34.170Z,2148.00
2019-05-10T14:01:31.562Z,2036.00
2019-05-10T14:02:34.212Z,1904.00
2019-05-10T14:03:43.279Z,1776.00
2019-05-10T14:04:53.555Z,1620.00
2019-05-10T14:05:53.539Z,1672.00
2019-05-10T14:06:53.527Z,1664.00
2019-05-10T14:07:53.529Z,1584.00
2019-05-10T14:08:53.502Z,1524.00
2019-05-10T14:09:53.589Z,1640.00
2019-05-10T14:10:55.911Z,1788.00
2019-05-10T14:12:23.218Z,1916.00
2019-05-10T14:13:20.654Z,1900.00
2019-05-10T14:14:26.023Z,1948.00
2019-05-10T14:15:42.462Z,1960.00
2019-05-10T14:16:42.440Z,1844.00
2019-05-10T14:17:42.475Z,1704.00
2019-05-10T14:18:42.427Z,1608.00
2019-05-10T14:19:42.426Z,1540.00
2019-05-10T14:20:42.393Z,1548.00
2019-05-10T14:21:42.385Z,1692.00
2019-05-10T14:22:48.579Z,1704.00
2019-05-10T14:24:08.961Z,1940.00
2019-05-10T14:25:29.549Z,2320.00
2019-05-10T14:26:51.479Z,2264.00
2019-05-10T14:28:15.872Z,2212.00
2019-05-10T14:29:36.471Z,2156.00
2019-05-10T14:30:32.322Z,2148.00
2019-05-10T14:31:32.311Z,2112.00
2019-05-10T14:32:32.316Z,2144.00
2019-05-10T14:33:32.288Z,2088.00
2019-05-10T14:34:32.299Z,2012.00
2019-05-10T14:35:32.272Z,2264.00
2019-05-10T14:36:34.223Z,2488.00
2019-05-10T14:37:54.280Z,2640.00
2019-05-10T14:38:56.238Z,2656.00
2019-05-10T14:39:54.250Z,2612.00
2019-05-10T14:40:54.261Z,2432.00
2019-05-10T14:41:54.227Z,1984.00
2019-05-10T14:42:54.214Z,1856.00
2019-05-10T14:43:54.205Z,1748.00
2019-05-10T14:44:54.204Z,1424.00
2019-05-10T14:45:54.176Z,1452.00
2019-05-10T14:46:54.172Z,1524.00
2019-05-10T14:47:54.175Z,1576.00
2019-05-10T14:48:54.150Z,1448.00
2019-05-10T14:49:54.131Z,1372.00
2019-05-10T14:50:54.133Z,1336.00
2019-05-10T14:51:59.027Z,1268.00
2019-05-10T14:52:54.100Z,1224.00
2019-05-10T14:53:58.199Z,1276.00
2019-05-10T14:55:16.467Z,1384.00
2019-05-10T14:56:16.448Z,1544.00
2019-05-10T14:57:16.481Z,1576.00
2019-05-10T14:58:16.422Z,1616.00
2019-05-10T14:59:16.411Z,1696.00
2019-05-10T15:15:02.547Z,2080.00
2019-05-10T15:16:02.538Z,2096.00
2019-05-10T15:17:02.543Z,2044.00
2019-05-10T15:18:03.702Z,2004.00
2019-05-10T15:19:02.511Z,1920.00
2019-05-10T15:20:02.503Z,1724.00
2019-05-10T15:21:02.493Z,1520.00
2019-05-10T15:22:02.605Z,1292.00
2019-05-10T15:23:02.448Z,1232.00
2019-05-10T15:24:03.058Z,1216.00
2019-05-10T15:25:02.435Z,1236.00
2019-05-10T15:26:10.365Z,1252.00
2019-05-10T15:27:24.480Z,1208.00
2019-05-10T15:28:24.470Z,1176.00
2019-05-10T15:29:24.753Z,1224.00
2019-05-10T15:30:24.451Z,1264.00
2019-05-10T15:31:29.378Z,1360.00
2019-05-10T15:32:46.448Z,1476.00
2019-05-10T15:33:46.456Z,1500.00
2019-05-10T15:35:04.208Z,1552.00
2019-05-10T15:36:08.540Z,1532.00
2019-05-10T15:37:09.640Z,1588.00
2019-05-10T15:38:08.519Z,1588.00
2019-05-10T15:39:08.527Z,1576.00
2019-05-10T15:40:08.499Z,1652.00
2019-05-10T15:41:08.492Z,1672.00
2019-05-10T15:42:08.471Z,1584.00
2019-05-10T15:43:10.565Z,1604.00
2019-05-10T15:44:31.629Z,1668.00
2019-05-10T15:45:30.322Z,1684.00
2019-05-10T15:46:39.164Z,1668.00
2019-05-10T15:47:57.409Z,1640.00
2019-05-10T15:49:22.777Z,1612.00
2019-05-10T15:50:38.759Z,1564.00
2019-05-10T15:51:36.869Z,1496.00
2019-05-10T15:52:39.729Z,1452.00
2019-05-10T15:54:04.937Z,1440.00
2019-05-10T15:55:26.710Z,1420.00
2019-05-10T15:56:44.241Z,1464.00
2019-05-10T15:57:42.373Z,1520.00
2019-05-10T15:58:42.800Z,1548.00
2019-05-10T15:59:42.336Z,1556.00
2019-05-10T16:00:42.310Z,1560.00
2019-05-10T16:01:45.481Z,1588.00
2019-05-10T16:02:42.281Z,1532.00
2019-05-10T16:03:42.272Z,1444.00
2019-05-10T16:04:42.268Z,1448.00
2019-05-10T16:05:43.980Z,1516.00
2019-05-10T16:06:42.252Z,1584.00
2019-05-10T16:07:46.533Z,1632.00
2019-05-10T16:09:16.418Z,1588.00
2019-05-10T16:10:28.469Z,1500.00
2019-05-10T16:11:48.421Z,1404.00
2019-05-10T16:12:48.406Z,1392.00
2019-05-10T16:13:48.390Z,1256.00
2019-05-10T16:14:48.384Z,1084.00
2019-05-10T16:15:51.557Z,936.00
2019-05-10T16:17:17.609Z,908.00
2019-05-10T16:18:40.107Z,980.00
2019-05-10T16:19:59.806Z,1016.00
2019-05-10T16:20:55.611Z,1092.00
2019-05-10T16:21:58.123Z,1152.00
2019-05-10T16:22:55.574Z,1260.00
2019-05-10T16:23:55.582Z,1472.00
2019-05-10T16:25:00.851Z,1544.00
2019-05-10T16:25:55.539Z,1516.00
2019-05-10T16:27:00.144Z,1508.00
2019-05-10T16:28:20.657Z,1476.00
2019-05-10T16:29:17.686Z,1392.00
2019-05-10T16:30:20.057Z,1356.00
2019-05-10T16:31:17.659Z,1424.00
2019-05-10T16:32:17.648Z,1492.00
2019-05-10T16:33:18.252Z,1484.00
2019-05-10T16:34:17.622Z,1412.00
2019-05-10T16:35:17.611Z,1388.00
2019-05-10T16:36:17.604Z,1300.00
2019-05-10T16:37:17.606Z,1180.00
2019-05-10T16:38:17.575Z,1072.00
2019-05-10T16:39:17.580Z,1036.00
2019-05-10T16:40:17.556Z,1004.00
2019-05-10T16:41:17.603Z,948.00
2019-05-10T16:42:17.537Z,908.00
2019-05-10T16:43:22.386Z,880.00
2019-05-10T16:44:39.640Z,816.00
2019-05-10T16:45:39.683Z,792.00
2019-05-10T16:46:39.618Z,804.00
2019-05-10T16:47:39.602Z,812.00
2019-05-10T16:48:39.594Z,816.00
2019-05-10T16:49:39.597Z,792.00
2019-05-10T16:50:39.563Z,788.00
2019-05-10T16:51:42.419Z,768.00
2019-05-10T16:53:05.604Z,760.00
2019-05-10T16:54:25.384Z,776.00
2019-05-10T16:55:23.494Z,756.00
2019-05-10T16:56:23.460Z,740.00
2019-05-10T16:57:23.458Z,716.00
2019-05-10T16:58:23.439Z,684.00
2019-05-10T16:59:24.353Z,664.00
2019-05-10T17:00:23.410Z,672.00
2019-05-10T17:01:25.746Z,688.00
2019-05-10T17:02:23.390Z,684.00
2019-05-10T17:03:23.370Z,676.00
2019-05-10T17:04:23.380Z,696.00
2019-05-10T17:05:23.348Z,716.00
2019-05-10T17:06:23.348Z,756.00
2019-05-10T17:07:23.347Z,812.00
2019-05-10T17:08:23.324Z,844.00
2019-05-10T17:09:23.303Z,880.00
2019-05-10T17:10:26.947Z,856.00
2019-05-10T17:11:46.896Z,788.00
2019-05-10T17:12:45.356Z,756.00
2019-05-10T17:13:45.347Z,716.00
2019-05-10T17:14:45.331Z,692.00
2019-05-10T17:15:45.320Z,696.00
2019-05-10T17:16:50.182Z,692.00
2019-05-10T17:18:10.423Z,732.00
2019-05-10T17:19:34.288Z,688.00
2019-05-10T17:20:52.523Z,700.00
2019-05-10T17:21:51.328Z,688.00
2019-05-10T17:22:51.313Z,736.00
2019-05-10T17:23:51.308Z,804.00
2019-05-10T17:24:51.296Z,816.00
2019-05-10T17:25:51.284Z,844.00
2019-05-10T17:26:51.286Z,848.00
2019-05-10T17:27:57.495Z,824.00
2019-05-10T17:29:14.746Z,820.00
2019-05-10T17:30:13.257Z,840.00
2019-05-10T17:31:13.245Z,844.00
2019-05-10T17:32:13.256Z,848.00
2019-05-10T17:33:13.225Z,848.00
2019-05-10T17:34:21.938Z,880.00
2019-05-10T17:35:36.687Z,892.00
2019-05-10T17:36:58.408Z,800.00
2019-05-10T17:37:57.277Z,720.00
2019-05-10T17:38:57.276Z,660.00
2019-05-10T17:39:57.257Z,624.00
2019-05-10T17:40:57.242Z,588.00
2019-05-10T17:41:57.582Z,568.00
2019-05-10T17:42:57.223Z,592.00
2019-05-10T17:43:57.202Z,628.00
2019-05-10T17:45:01.826Z,608.00
2019-05-10T17:46:20.887Z,612.00
2019-05-10T17:48:19.443Z,568.00
2019-05-10T17:49:19.429Z,548.00
2019-05-10T17:50:19.436Z,524.00
2019-05-10T17:51:19.409Z,520.00
2019-05-10T17:52:19.405Z,532.00
2019-05-10T17:53:19.403Z,556.00
2019-05-10T17:54:19.371Z,584.00
2019-05-10T17:55:19.357Z,596.00
2019-05-10T17:56:19.350Z,552.00
2019-05-10T17:57:19.342Z,528.00
2019-05-10T17:58:19.327Z,524.00
2019-05-10T17:59:19.329Z,520.00
2019-05-10T18:00:19.301Z,520.00
2019-05-10T18:01:19.290Z,536.00
2019-05-10T18:02:19.283Z,560.00
2019-05-10T18:03:19.273Z,584.00
2019-05-10T18:04:19.254Z,620.00
2019-05-10T18:05:19.279Z,604.00
2019-05-10T18:06:24.200Z,572.00
2019-05-10T18:07:19.327Z,552.00
2019-05-10T18:08:19.208Z,532.00
2019-05-10T18:09:19.208Z,492.00
2019-05-10T18:10:19.189Z,424.00
2019-05-10T18:11:19.179Z,388.00
2019-05-10T18:12:20.319Z,392.00
2019-05-10T18:14:19.781Z,428.00
2019-05-10T18:16:19.122Z,452.00
2019-05-10T18:18:19.127Z,420.00
2019-05-10T18:20:19.075Z,372.00
2019-05-10T18:21:22.197Z,356.00
2019-05-10T18:22:19.054Z,332.00
2019-05-10T18:23:21.146Z,304.00
2019-05-10T18:24:19.039Z,280.00
2019-05-10T18:25:20.242Z,264.00
2019-05-10T18:26:19.014Z,248.00
2019-05-10T18:28:21.473Z,232.00
2019-05-10T18:29:18.976Z,232.00
2019-05-10T18:30:18.981Z,224.00
2019-05-10T18:31:20.068Z,208.00
2019-05-10T18:32:18.942Z,188.00
2019-05-10T18:33:18.986Z,172.00
2019-05-10T18:35:18.904Z,148.00
2019-05-10T18:36:18.904Z,132.00
2019-05-10T18:37:21.828Z,124.00
